SBRFSBFN

Guest
Details From SBRF - Recife Intl
To SBFN - Fernando De Noronha
Flight Number -
Tags Generated
Created
Modified
Stats Distance 297 nm / 550 km
Max Altitude 0 ft / 0 m
Waypoints 3
Social Downloads 1
Likes 0
Share VATSIM

Download

Looking for another format? Having issues loading an existing format? Contact us
Advertisement - Login to hide

Notes

Generated

Route

SBRF FNO SBFN

ID Type Via Altitude Latitude Longitude Leg Dist Tot Dist Heading (true) Name
O SBRF APT - 0 ft / 0 m -8.12516˚ -34.92862˚ - 0 nm - -
FNO VOR - 0 ft / 0 m -3.87020˚ -32.42932˚ 295 nm 295 nm 30° / 30° FERNANDO VOR-DME
O SBFN APT - 0 ft / 0 m -3.85435˚ -32.43165˚ 0 nm 296 nm 352° / 352° -

Altitude Profile

Advertisement - Login to hide

Weather


0- 5 10 15 20 25 30 35+ Temperature / ° C

Clouds and Precipitation
Forecast for 2017-12-13 00:00 UTC. Updated 11 minutes ago

Ground ~20,000 ft ~40,000 ft Winds

SBRF

Details ICAO SBRF (REC)
Name Recife Intl
Region Brazil
Timezone America/Recife (UTC-3.0)
Stats Elevation 33 ft / 10 m (AMSL)
Location -8.127896° -34.922981°
Runways 2
Magnetic Variation 22.088° W

METAR

SBRF 122300Z 10006KT 040V140 9999 SCT022 27/22 Q1012

Decode

TAF

TAF SBRF 121600Z 1218/1318 06008KT 9999 SCT020 TN25/1308Z TX30/1314Z RMK PCH

Decode

Departure Runways

ID Width Length Bearing (true) Bearing (mag) Surface Threshold Offset Overrun Length
01 98 ft / 30 m 4,979 ft / 1,518 m 304.20° 326.29° Asphalt 300 ft / 91 m 0 ft / 0 m
18 148 ft / 45 m 9,915 ft / 3,022 m 161.91° 184.00° Asphalt 1,225 ft / 373 m 0 ft / 0 m
19 98 ft / 30 m 4,979 ft / 1,518 m 124.20° 146.29° Asphalt 300 ft / 91 m 0 ft / 0 m
36 148 ft / 45 m 9,915 ft / 3,022 m 341.91° 4.00° Asphalt 0 ft / 0 m 350 ft / 107 m

SBFN

Details ICAO SBFN (FEN)
Name Fernando De Noronha
Region Brazil
Timezone America/Noronha (UTC-2.0)
Stats Elevation 180 ft / 55 m (AMSL)
Location -3.854928° -32.423335°
Runways 1
Magnetic Variation 20.050° W

METAR

SBFN 122200Z 12011KT 9999 SCT019 27/23 Q1012

Decode

TAF

TAF SBFN 121600Z 1218/1306 10012KT 9999 SCT017 TX28/1218Z TN26/1222Z RMK PCH

Decode

Destination Runways

ID Width Length Bearing (true) Bearing (mag) Surface Threshold Offset Overrun Length
12 148 ft / 45 m 6,070 ft / 1,850 m 93.99° 114.04° Asphalt 0 ft / 0 m 0 ft / 0 m
30 148 ft / 45 m 6,070 ft / 1,850 m 273.98° 294.03° Asphalt 0 ft / 0 m 0 ft / 0 m

Popular Alternatives